KGRB/GRB METAR and TAF weather

Enter ICAO airport designator
Station Type Date Time Source
KGRB METAR 2021/09/28 15:53 UTC NOAA

KGRB 281553Z VRB05KT 10SM CLR 18/11 A3008 RMK AO2 SLP186 T01780106


Station Type Date Time Source
KGRB Decoded METAR 2021/09/28 15:53 UTC NOAA

AUSTIN STRAUBEL INTERNATIONAL AIRPORT , WI, United States (KGRB) 44-29N 088-08W 205M
Sep 28, 2021 - 11:53 AM EDT / 2021.09.28 1553 UTC
Wind: Variable at 6 MPH (5 KT):0
Visibility: 10 mile(s):0
Sky conditions: clear
Temperature: 64.0 F (17.8 C)
Dew Point: 51.1 F (10.6 C)
Relative Humidity: 62%
Pressure (altimeter): 30.08 in. Hg (1018 hPa)
ob: KGRB 281553Z VRB05KT 10SM CLR 18/11 A3008 RMK AO2 SLP186 T01780106
cycle: 16

Station Type Date Time Source
KGRB TAF 2021/09/28 12:22 UTC NOAA

TAF KGRB 281120Z 2812/2912 04003KT P6SM SKC
FM281500 12006KT P6SM SKC
FM290100 16003KT P6SM SKC

Example: see airport list